الصفحة الرئيسية
METAR-TAF:

METAR-TAF

مطار :

مطار الملك فهد الدولي

الدمام, السعودية

دائرة عرض: 26-28N, خط طول: 049-47E, ارتفاع: 22 متر

مراقبة الطقس الحالي

تاريخ ووقت الإصدار 39 دقيقة قبل الساعة 15:00UTC
ريح 10 عقدة من الشرق
درجة الحرارة 40°درجة مئوية
الرطوبة 15%
ضغط 997 hPa
الرؤية 10 كم أو أكثر
الغيوم لا تقل 1500 م ولا وجود لمزنة ركامية السحاب الأسود

METAR: OEDF 141500Z 08010KT CAVOK 40/08 Q0997 NOSIG

زمن: 18:39 (15:39 UTC)

توقعات

تاريخ ووقت الإصدار 5ساعات و 39 دقيقة قبل الساعة 10:00UTC
التوقعات صالحة من14 الساعة 12 UTC إلى 15 الساعة 18 UTC
ريح 12 عقدة من الشرق
الرؤية 10 كم أو أكثر
الغيوم لا تقل 1500 م ولا وجود لمزنة ركامية السحاب الأسود
أصبح
من 14 الساعة 16 UTC إلى 14 الساعة 18 UTC
ريح 6 عقدة من الجنوب
أصبح
من 15 الساعة 04 UTC إلى 15 الساعة 06 UTC
ريح 8 عقدة من الشمال الغربي

TAF: OEDF 141000Z 1412/1518 08012KT CAVOK BECMG 1416/1418 18006KT BECMG 1504/1506 32008KT

أرصاد الطقس والتوقعات من أكثر من 4000 مطار (تقارير الطقس للمطار METAR والتنبؤ بالطقس بالمطارTAF).

المحطات المتاحة هي النقط الصفراء والحمراء على الخريطة.

حرك المؤشر فوق النقطة لمعرفة اسم المحطة.

ثم انقر لمعرفة أرصاد وتوقعات الطقس.

لتغيير الخارطة: اضغط على الأزرار الخضراء مع رمز الصليب الأسود للتكبير. على الزر الأخضر مع شرطة للتصغير، أو على الأسهم الخضراء للخرائط المجاورة.


METAR-TAF: